sensor_id;sensor_type;location;lat;lon;timestamp;pressure;altitude;pressure_sealevel;temperature;humidity
58018;BME280;43810;50.860;19.226;2023-05-22T00:01:17;98894.38;;;9.65;87.11
58018;BME280;43810;50.860;19.226;2023-05-22T00:03:47;98898.13;;;9.56;86.87
58018;BME280;43810;50.860;19.226;2023-05-22T00:06:15;98893.16;;;9.37;87.20
58018;BME280;43810;50.860;19.226;2023-05-22T00:08:43;98896.56;;;9.29;87.51
58018;BME280;43810;50.860;19.226;2023-05-22T00:11:09;98889.56;;;9.33;88.15
58018;BME280;43810;50.860;19.226;2023-05-22T00:13:35;98886.91;;;9.33;88.41
58018;BME280;43810;50.860;19.226;2023-05-22T00:16:01;98888.78;;;9.32;88.32
58018;BME280;43810;50.860;19.226;2023-05-22T00:18:27;98884.09;;;9.29;88.33
58018;BME280;43810;50.860;19.226;2023-05-22T00:20:53;98883.44;;;9.24;88.26
58018;BME280;43810;50.860;19.226;2023-05-22T00:23:19;98884.41;;;9.28;88.54
58018;BME280;43810;50.860;19.226;2023-05-22T00:25:46;98881.44;;;9.29;88.81
58018;BME280;43810;50.860;19.226;2023-05-22T00:28:12;98885.31;;;9.23;88.56
58018;BME280;43810;50.860;19.226;2023-05-22T00:30:38;98890.16;;;9.21;88.44
58018;BME280;43810;50.860;19.226;2023-05-22T00:33:04;98878.28;;;9.10;87.81
58018;BME280;43810;50.860;19.226;2023-05-22T00:35:30;98880.63;;;9.03;88.27
58018;BME280;43810;50.860;19.226;2023-05-22T00:37:56;98872.97;;;8.93;88.46
58018;BME280;43810;50.860;19.226;2023-05-22T00:40:22;98881.06;;;8.88;88.90
58018;BME280;43810;50.860;19.226;2023-05-22T00:42:47;98875.44;;;8.81;89.69
58018;BME280;43810;50.860;19.226;2023-05-22T00:45:14;98878.22;;;8.76;89.66
58018;BME280;43810;50.860;19.226;2023-05-22T00:47:40;98873.59;;;8.81;90.14
58018;BME280;43810;50.860;19.226;2023-05-22T00:50:07;98867.81;;;8.88;90.15
58018;BME280;43810;50.860;19.226;2023-05-22T00:52:37;98874.38;;;8.90;90.03
58018;BME280;43810;50.860;19.226;2023-05-22T00:55:04;98875.75;;;8.88;89.83
58018;BME280;43810;50.860;19.226;2023-05-22T00:57:31;98870.16;;;8.81;89.42
58018;BME280;43810;50.860;19.226;2023-05-22T00:59:59;98869.66;;;8.79;89.83
58018;BME280;43810;50.860;19.226;2023-05-22T01:02:25;98864.69;;;8.86;89.50
58018;BME280;43810;50.860;19.226;2023-05-22T01:04:52;98869.84;;;8.82;89.23
58018;BME280;43810;50.860;19.226;2023-05-22T01:07:22;98871.22;;;8.71;89.64
58018;BME280;43810;50.860;19.226;2023-05-22T01:09:48;98871.03;;;8.59;89.72
58018;BME280;43810;50.860;19.226;2023-05-22T01:12:25;98871.94;;;8.54;90.16
58018;BME280;43810;50.860;19.226;2023-05-22T01:14:58;98870.38;;;8.53;89.91
58018;BME280;43810;50.860;19.226;2023-05-22T01:17:38;98861.16;;;8.42;90.16
58018;BME280;43810;50.860;19.226;2023-05-22T01:20:24;98870.75;;;8.30;90.47
58018;BME280;43810;50.860;19.226;2023-05-22T01:31:23;98871.13;;;8.37;91.00
58018;BME280;43810;50.860;19.226;2023-05-22T01:33:58;98874.06;;;8.35;90.77
58018;BME280;43810;50.860;19.226;2023-05-22T01:36:28;98879.19;;;8.32;91.00
58018;BME280;43810;50.860;19.226;2023-05-22T01:38:55;98870.34;;;8.36;91.15
58018;BME280;43810;50.860;19.226;2023-05-22T01:41:22;98875.78;;;8.40;91.22
58018;BME280;43810;50.860;19.226;2023-05-22T01:43:47;98872.50;;;8.34;90.81
58018;BME280;43810;50.860;19.226;2023-05-22T01:46:13;98881.72;;;8.37;91.18
58018;BME280;43810;50.860;19.226;2023-05-22T01:48:39;98880.56;;;8.29;90.79
58018;BME280;43810;50.860;19.226;2023-05-22T01:51:14;98871.81;;;8.20;91.26
58018;BME280;43810;50.860;19.226;2023-05-22T01:53:54;98882.47;;;8.06;91.38
58018;BME280;43810;50.860;19.226;2023-05-22T01:56:26;98875.78;;;8.00;91.42
58018;BME280;43810;50.860;19.226;2023-05-22T02:01:49;98866.59;;;8.06;91.85
58018;BME280;43810;50.860;19.226;2023-05-22T02:04:18;98875.50;;;8.10;91.88
58018;BME280;43810;50.860;19.226;2023-05-22T02:06:45;98874.41;;;8.03;91.21
58018;BME280;43810;50.860;19.226;2023-05-22T02:09:11;98882.94;;;8.00;91.36
58018;BME280;43810;50.860;19.226;2023-05-22T02:11:40;98881.19;;;7.95;91.71
58018;BME280;43810;50.860;19.226;2023-05-22T02:14:06;98882.44;;;7.98;92.07
58018;BME280;43810;50.860;19.226;2023-05-22T02:16:33;98882.34;;;8.03;92.10
58018;BME280;43810;50.860;19.226;2023-05-22T02:19:00;98874.84;;;8.05;92.04
58018;BME280;43810;50.860;19.226;2023-05-22T02:21:33;98879.69;;;8.03;92.12
58018;BME280;43810;50.860;19.226;2023-05-22T02:23:59;98879.19;;;8.01;92.22
58018;BME280;43810;50.860;19.226;2023-05-22T02:26:25;98884.50;;;8.01;91.94
58018;BME280;43810;50.860;19.226;2023-05-22T02:28:51;98873.88;;;7.92;91.98
58018;BME280;43810;50.860;19.226;2023-05-22T02:31:17;98879.56;;;7.85;91.59
58018;BME280;43810;50.860;19.226;2023-05-22T02:33:43;98879.22;;;7.78;91.70
58018;BME280;43810;50.860;19.226;2023-05-22T02:36:09;98873.75;;;7.75;91.84
58018;BME280;43810;50.860;19.226;2023-05-22T02:38:37;98868.28;;;7.71;92.00
58018;BME280;43810;50.860;19.226;2023-05-22T02:41:04;98872.97;;;7.74;92.22
58018;BME280;43810;50.860;19.226;2023-05-22T02:43:30;98876.59;;;7.78;92.01
58018;BME280;43810;50.860;19.226;2023-05-22T02:45:56;98865.22;;;7.78;92.30
58018;BME280;43810;50.860;19.226;2023-05-22T02:48:21;98865.34;;;7.73;92.22
58018;BME280;43810;50.860;19.226;2023-05-22T02:50:47;98872.00;;;7.70;91.99
58018;BME280;43810;50.860;19.226;2023-05-22T02:53:13;98867.19;;;7.72;92.35
58018;BME280;43810;50.860;19.226;2023-05-22T02:55:40;98864.25;;;7.74;92.29
58018;BME280;43810;50.860;19.226;2023-05-22T02:58:06;98860.03;;;7.73;92.03
58018;BME280;43810;50.860;19.226;2023-05-22T03:00:36;98872.66;;;7.76;92.14
58018;BME280;43810;50.860;19.226;2023-05-22T03:03:03;98862.88;;;7.76;92.06
58018;BME280;43810;50.860;19.226;2023-05-22T03:05:29;98862.28;;;7.79;92.16
58018;BME280;43810;50.860;19.226;2023-05-22T03:07:56;98873.50;;;7.85;92.35
58018;BME280;43810;50.860;19.226;2023-05-22T03:10:23;98871.03;;;7.88;92.14
58018;BME280;43810;50.860;19.226;2023-05-22T03:12:49;98865.16;;;7.92;92.39
58018;BME280;43810;50.860;19.226;2023-05-22T03:15:17;98870.19;;;8.02;92.43
58018;BME280;43810;50.860;19.226;2023-05-22T03:17:43;98868.78;;;8.04;92.26
58018;BME280;43810;50.860;19.226;2023-05-22T03:20:10;98867.38;;;8.07;92.18
58018;BME280;43810;50.860;19.226;2023-05-22T03:22:41;98860.91;;;8.13;92.01
58018;BME280;43810;50.860;19.226;2023-05-22T03:25:08;98860.44;;;8.19;92.16
58018;BME280;43810;50.860;19.226;2023-05-22T03:27:34;98866.09;;;8.26;92.09
58018;BME280;43810;50.860;19.226;2023-05-22T03:30:01;98868.59;;;8.32;91.97
58018;BME280;43810;50.860;19.226;2023-05-22T03:32:27;98862.25;;;8.41;92.01
58018;BME280;43810;50.860;19.226;2023-05-22T03:34:52;98863.22;;;8.54;92.19
58018;BME280;43810;50.860;19.226;2023-05-22T03:37:18;98860.47;;;8.68;91.53
58018;BME280;43810;50.860;19.226;2023-05-22T03:39:44;98860.47;;;8.85;91.23
58018;BME280;43810;50.860;19.226;2023-05-22T03:42:10;98861.59;;;9.01;90.71
58018;BME280;43810;50.860;19.226;2023-05-22T03:44:38;98847.25;;;9.19;89.89
58018;BME280;43810;50.860;19.226;2023-05-22T03:47:04;98854.78;;;9.34;88.91
58018;BME280;43810;50.860;19.226;2023-05-22T03:49:30;98865.22;;;9.57;87.66
58018;BME280;43810;50.860;19.226;2023-05-22T03:51:56;98861.28;;;9.80;86.78
58018;BME280;43810;50.860;19.226;2023-05-22T03:54:22;98853.25;;;10.06;86.36
58018;BME280;43810;50.860;19.226;2023-05-22T03:56:48;98860.94;;;10.37;85.33
58018;BME280;43810;50.860;19.226;2023-05-22T03:59:15;98862.38;;;10.64;83.80
58018;BME280;43810;50.860;19.226;2023-05-22T04:01:41;98856.53;;;11.00;81.87
58018;BME280;43810;50.860;19.226;2023-05-22T04:04:07;98853.50;;;11.31;80.84
58018;BME280;43810;50.860;19.226;2023-05-22T04:06:34;98840.53;;;11.62;79.81
58018;BME280;43810;50.860;19.226;2023-05-22T04:09:10;98847.84;;;11.98;79.06
58018;BME280;43810;50.860;19.226;2023-05-22T04:11:37;98849.09;;;12.25;76.75
58018;BME280;43810;50.860;19.226;2023-05-22T04:14:07;98861.88;;;12.56;76.20
58018;BME280;43810;50.860;19.226;2023-05-22T04:16:33;98857.91;;;12.86;75.21
58018;BME280;43810;50.860;19.226;2023-05-22T04:19:00;98851.84;;;13.02;74.58
58018;BME280;43810;50.860;19.226;2023-05-22T04:21:31;98850.16;;;13.21;73.75
58018;BME280;43810;50.860;19.226;2023-05-22T04:24:00;98853.94;;;13.48;72.58
58018;BME280;43810;50.860;19.226;2023-05-22T04:26:26;98849.56;;;13.56;71.34
58018;BME280;43810;50.860;19.226;2023-05-22T04:28:56;98860.38;;;13.75;71.73
58018;BME280;43810;50.860;19.226;2023-05-22T04:31:22;98857.38;;;13.77;69.42
58018;BME280;43810;50.860;19.226;2023-05-22T04:33:48;98846.78;;;13.96;70.24
58018;BME280;43810;50.860;19.226;2023-05-22T04:36:15;98857.63;;;14.15;68.42
58018;BME280;43810;50.860;19.226;2023-05-22T04:38:42;98855.81;;;14.19;68.71
58018;BME280;43810;50.860;19.226;2023-05-22T04:41:11;98858.13;;;14.21;68.46
58018;BME280;43810;50.860;19.226;2023-05-22T04:43:38;98860.38;;;14.19;66.78
58018;BME280;43810;50.860;19.226;2023-05-22T04:46:05;98857.00;;;14.22;68.12
58018;BME280;43810;50.860;19.226;2023-05-22T04:48:32;98857.94;;;14.29;68.42
58018;BME280;43810;50.860;19.226;2023-05-22T04:50:58;98854.09;;;13.83;68.75
58018;BME280;43810;50.860;19.226;2023-05-22T04:53:27;98851.16;;;13.73;69.71
58018;BME280;43810;50.860;19.226;2023-05-22T04:55:55;98854.94;;;13.72;70.12
58018;BME280;43810;50.860;19.226;2023-05-22T04:58:21;98862.72;;;13.92;69.27
58018;BME280;43810;50.860;19.226;2023-05-22T05:00:48;98856.97;;;14.06;70.71
58018;BME280;43810;50.860;19.226;2023-05-22T05:03:14;98859.25;;;14.35;69.95
58018;BME280;43810;50.860;19.226;2023-05-22T05:05:39;98851.44;;;14.62;68.81
58018;BME280;43810;50.860;19.226;2023-05-22T05:08:05;98856.66;;;14.90;68.78
58018;BME280;43810;50.860;19.226;2023-05-22T05:10:31;98858.38;;;14.98;68.10
58018;BME280;43810;50.860;19.226;2023-05-22T05:12:57;98847.84;;;15.24;65.78
58018;BME280;43810;50.860;19.226;2023-05-22T05:15:23;98851.34;;;15.09;65.54
58018;BME280;43810;50.860;19.226;2023-05-22T05:17:49;98846.97;;;15.01;65.45
58018;BME280;43810;50.860;19.226;2023-05-22T05:20:15;98851.00;;;15.10;66.94
58018;BME280;43810;50.860;19.226;2023-05-22T05:22:41;98857.50;;;15.48;66.99
58018;BME280;43810;50.860;19.226;2023-05-22T05:25:08;98850.03;;;15.76;64.56
58018;BME280;43810;50.860;19.226;2023-05-22T05:27:34;98852.59;;;15.92;66.08
58018;BME280;43810;50.860;19.226;2023-05-22T05:30:00;98858.25;;;15.87;66.23
58018;BME280;43810;50.860;19.226;2023-05-22T05:32:26;98860.88;;;15.83;65.78
58018;BME280;43810;50.860;19.226;2023-05-22T05:34:52;98859.06;;;15.91;65.00
58018;BME280;43810;50.860;19.226;2023-05-22T05:37:18;98859.56;;;15.97;64.10
58018;BME280;43810;50.860;19.226;2023-05-22T05:39:44;98860.81;;;16.26;64.26
58018;BME280;43810;50.860;19.226;2023-05-22T05:42:10;98850.16;;;16.29;63.64
58018;BME280;43810;50.860;19.226;2023-05-22T05:44:35;98849.28;;;16.21;61.45
58018;BME280;43810;50.860;19.226;2023-05-22T05:47:01;98852.16;;;16.58;64.40
58018;BME280;43810;50.860;19.226;2023-05-22T05:49:27;98844.38;;;16.76;62.22
58018;BME280;43810;50.860;19.226;2023-05-22T05:51:53;98845.84;;;17.00;61.29
58018;BME280;43810;50.860;19.226;2023-05-22T05:54:19;98846.56;;;16.97;62.20
58018;BME280;43810;50.860;19.226;2023-05-22T05:56:46;98842.06;;;17.05;62.35
58018;BME280;43810;50.860;19.226;2023-05-22T05:59:12;98839.25;;;17.24;63.17
58018;BME280;43810;50.860;19.226;2023-05-22T06:01:42;98840.63;;;17.44;60.16
58018;BME280;43810;50.860;19.226;2023-05-22T06:04:08;98840.75;;;17.88;58.48
58018;BME280;43810;50.860;19.226;2023-05-22T06:06:34;98839.44;;;17.72;59.06
58018;BME280;43810;50.860;19.226;2023-05-22T06:09:02;98826.13;;;17.86;58.80
58018;BME280;43810;50.860;19.226;2023-05-22T06:11:30;98838.16;;;17.99;58.42
58018;BME280;43810;50.860;19.226;2023-05-22T06:13:55;98838.00;;;17.85;55.89
58018;BME280;43810;50.860;19.226;2023-05-22T06:16:22;98835.63;;;17.76;56.63
58018;BME280;43810;50.860;19.226;2023-05-22T06:18:48;98837.09;;;18.11;57.54
58018;BME280;43810;50.860;19.226;2023-05-22T06:21:17;98832.13;;;18.13;56.13
58018;BME280;43810;50.860;19.226;2023-05-22T06:23:46;98837.47;;;18.09;57.34
58018;BME280;43810;50.860;19.226;2023-05-22T06:26:12;98833.91;;;17.98;54.92
58018;BME280;43810;50.860;19.226;2023-05-22T06:28:38;98839.91;;;18.25;54.94
58018;BME280;43810;50.860;19.226;2023-05-22T06:31:04;98839.00;;;18.58;55.20
58018;BME280;43810;50.860;19.226;2023-05-22T06:33:30;98841.50;;;18.84;57.22
58018;BME280;43810;50.860;19.226;2023-05-22T06:35:56;98842.72;;;19.01;53.50
58018;BME280;43810;50.860;19.226;2023-05-22T06:38:22;98844.66;;;18.97;54.79
58018;BME280;43810;50.860;19.226;2023-05-22T06:40:48;98841.75;;;19.34;54.10
58018;BME280;43810;50.860;19.226;2023-05-22T06:43:14;98831.75;;;19.41;53.14
58018;BME280;43810;50.860;19.226;2023-05-22T06:45:40;98839.00;;;19.27;53.34
58018;BME280;43810;50.860;19.226;2023-05-22T06:48:06;98841.69;;;19.20;54.69
58018;BME280;43810;50.860;19.226;2023-05-22T06:50:32;98850.59;;;19.34;52.53
58018;BME280;43810;50.860;19.226;2023-05-22T06:52:58;98845.22;;;19.41;54.60
58018;BME280;43810;50.860;19.226;2023-05-22T06:55:24;98852.13;;;19.39;52.12
58018;BME280;43810;50.860;19.226;2023-05-22T06:57:50;98848.34;;;19.54;50.39
58018;BME280;43810;50.860;19.226;2023-05-22T07:00:16;98843.34;;;19.53;53.13
58018;BME280;43810;50.860;19.226;2023-05-22T07:02:42;98837.63;;;19.65;53.42
58018;BME280;43810;50.860;19.226;2023-05-22T07:05:08;98836.88;;;19.86;51.58
58018;BME280;43810;50.860;19.226;2023-05-22T07:07:34;98839.97;;;19.88;51.73
58018;BME280;43810;50.860;19.226;2023-05-22T07:10:00;98836.53;;;20.37;50.27
58018;BME280;43810;50.860;19.226;2023-05-22T07:12:26;98836.53;;;20.08;52.05
58018;BME280;43810;50.860;19.226;2023-05-22T07:14:52;98839.63;;;20.46;54.15
58018;BME280;43810;50.860;19.226;2023-05-22T07:17:19;98838.06;;;20.70;51.46
58018;BME280;43810;50.860;19.226;2023-05-22T07:19:47;98846.13;;;20.73;49.30
58018;BME280;43810;50.860;19.226;2023-05-22T07:22:13;98834.59;;;20.44;49.37
58018;BME280;43810;50.860;19.226;2023-05-22T07:24:39;98846.13;;;20.73;48.47
58018;BME280;43810;50.860;19.226;2023-05-22T07:27:05;98838.00;;;20.95;47.69
58018;BME280;43810;50.860;19.226;2023-05-22T07:29:31;98835.66;;;20.97;50.61
58018;BME280;43810;50.860;19.226;2023-05-22T07:31:57;98834.81;;;21.28;46.90
58018;BME280;43810;50.860;19.226;2023-05-22T07:34:23;98842.53;;;21.26;47.26
58018;BME280;43810;50.860;19.226;2023-05-22T07:36:56;98835.97;;;21.20;47.38
58018;BME280;43810;50.860;19.226;2023-05-22T07:39:22;98840.97;;;21.29;49.50
58018;BME280;43810;50.860;19.226;2023-05-22T07:41:48;98830.94;;;21.29;47.80
58018;BME280;43810;50.860;19.226;2023-05-22T07:44:18;98827.19;;;21.05;48.58
58018;BME280;43810;50.860;19.226;2023-05-22T07:46:44;98830.66;;;21.06;47.54
58018;BME280;43810;50.860;19.226;2023-05-22T07:49:10;98832.28;;;21.73;48.53
58018;BME280;43810;50.860;19.226;2023-05-22T07:51:35;98827.31;;;22.16;48.45
58018;BME280;43810;50.860;19.226;2023-05-22T07:54:01;98824.94;;;22.28;46.15
58018;BME280;43810;50.860;19.226;2023-05-22T07:56:27;98820.56;;;22.42;44.53
58018;BME280;43810;50.860;19.226;2023-05-22T07:58:53;98827.78;;;21.45;42.98
58018;BME280;43810;50.860;19.226;2023-05-22T08:01:19;98827.22;;;20.95;46.21
58018;BME280;43810;50.860;19.226;2023-05-22T08:03:46;98828.00;;;20.81;44.29
58018;BME280;43810;50.860;19.226;2023-05-22T08:06:11;98824.75;;;21.36;45.90
58018;BME280;43810;50.860;19.226;2023-05-22T08:08:37;98822.69;;;21.65;43.86
58018;BME280;43810;50.860;19.226;2023-05-22T08:11:03;98821.38;;;21.83;44.53
58018;BME280;43810;50.860;19.226;2023-05-22T08:13:29;98819.41;;;21.91;46.27
58018;BME280;43810;50.860;19.226;2023-05-22T08:15:55;98822.16;;;21.84;44.19
58018;BME280;43810;50.860;19.226;2023-05-22T08:18:21;98808.25;;;21.82;42.04
58018;BME280;43810;50.860;19.226;2023-05-22T08:20:46;98810.13;;;21.92;44.05
58018;BME280;43810;50.860;19.226;2023-05-22T08:23:12;98821.53;;;21.58;42.80
58018;BME280;43810;50.860;19.226;2023-05-22T08:25:38;98813.59;;;21.92;44.11
58018;BME280;43810;50.860;19.226;2023-05-22T08:28:04;98808.06;;;22.10;41.14
58018;BME280;43810;50.860;19.226;2023-05-22T08:30:30;98806.13;;;22.55;41.80
58018;BME280;43810;50.860;19.226;2023-05-22T08:32:56;98817.75;;;22.52;46.25
58018;BME280;43810;50.860;19.226;2023-05-22T08:35:22;98822.28;;;22.66;43.35
58018;BME280;43810;50.860;19.226;2023-05-22T08:37:48;98823.63;;;22.85;40.40
58018;BME280;43810;50.860;19.226;2023-05-22T08:40:14;98821.78;;;22.75;41.00
58018;BME280;43810;50.860;19.226;2023-05-22T08:42:40;98819.66;;;22.93;42.32
58018;BME280;43810;50.860;19.226;2023-05-22T08:45:06;98819.94;;;23.36;45.10
58018;BME280;43810;50.860;19.226;2023-05-22T08:47:36;98819.50;;;23.68;39.65
58018;BME280;43810;50.860;19.226;2023-05-22T08:50:04;98809.41;;;23.11;40.44
58018;BME280;43810;50.860;19.226;2023-05-22T08:52:43;98807.25;;;22.95;41.81
58018;BME280;43810;50.860;19.226;2023-05-22T08:55:11;98803.75;;;22.98;39.59
58018;BME280;43810;50.860;19.226;2023-05-22T08:57:37;98801.66;;;23.13;42.71
58018;BME280;43810;50.860;19.226;2023-05-22T09:00:03;98802.75;;;23.16;41.12
58018;BME280;43810;50.860;19.226;2023-05-22T09:02:30;98797.56;;;22.60;38.59
58018;BME280;43810;50.860;19.226;2023-05-22T09:04:56;98806.38;;;22.30;39.54
58018;BME280;43810;50.860;19.226;2023-05-22T09:07:22;98794.88;;;22.19;41.05
58018;BME280;43810;50.860;19.226;2023-05-22T09:09:49;98799.25;;;21.99;41.63
58018;BME280;43810;50.860;19.226;2023-05-22T09:12:15;98802.69;;;22.03;41.96
58018;BME280;43810;50.860;19.226;2023-05-22T09:14:42;98801.13;;;22.06;39.80
58018;BME280;43810;50.860;19.226;2023-05-22T09:17:10;98795.59;;;22.23;40.02
58018;BME280;43810;50.860;19.226;2023-05-22T09:19:43;98796.56;;;22.44;39.13
58018;BME280;43810;50.860;19.226;2023-05-22T09:22:11;98782.44;;;22.97;37.25
58018;BME280;43810;50.860;19.226;2023-05-22T09:24:37;98784.78;;;22.98;37.94
58018;BME280;43810;50.860;19.226;2023-05-22T09:27:08;98795.47;;;23.13;40.34
58018;BME280;43810;50.860;19.226;2023-05-22T09:29:51;98799.31;;;22.78;39.38
58018;BME280;43810;50.860;19.226;2023-05-22T09:32:18;98798.81;;;23.24;39.50
58018;BME280;43810;50.860;19.226;2023-05-22T09:34:45;98800.16;;;23.66;39.72
58018;BME280;43810;50.860;19.226;2023-05-22T09:37:16;98796.97;;;23.98;40.09
58018;BME280;43810;50.860;19.226;2023-05-22T09:39:43;98796.13;;;23.78;40.29
58018;BME280;43810;50.860;19.226;2023-05-22T09:42:10;98802.13;;;23.62;37.71
58018;BME280;43810;50.860;19.226;2023-05-22T09:44:37;98800.19;;;23.62;37.97
58018;BME280;43810;50.860;19.226;2023-05-22T09:47:07;98789.22;;;23.46;38.70
58018;BME280;43810;50.860;19.226;2023-05-22T09:49:41;98797.84;;;23.64;38.22
58018;BME280;43810;50.860;19.226;2023-05-22T09:52:07;98785.88;;;23.89;37.21
58018;BME280;43810;50.860;19.226;2023-05-22T09:54:34;98791.97;;;23.69;40.34
58018;BME280;43810;50.860;19.226;2023-05-22T09:57:04;98786.53;;;23.43;38.28
58018;BME280;43810;50.860;19.226;2023-05-22T09:59:32;98783.34;;;23.74;41.70
58018;BME280;43810;50.860;19.226;2023-05-22T10:01:59;98766.94;;;23.58;40.57
58018;BME280;43810;50.860;19.226;2023-05-22T10:04:29;98776.09;;;23.14;39.73
58018;BME280;43810;50.860;19.226;2023-05-22T10:07:00;98769.50;;;23.15;38.23
58018;BME280;43810;50.860;19.226;2023-05-22T10:09:30;98763.50;;;23.54;38.45
58018;BME280;43810;50.860;19.226;2023-05-22T10:12:02;98766.66;;;23.80;37.79
58018;BME280;43810;50.860;19.226;2023-05-22T10:14:30;98765.06;;;23.82;38.86
58018;BME280;43810;50.860;19.226;2023-05-22T10:16:57;98767.81;;;23.52;36.62
58018;BME280;43810;50.860;19.226;2023-05-22T10:19:27;98768.88;;;23.85;38.10
58018;BME280;43810;50.860;19.226;2023-05-22T10:21:56;98760.34;;;24.09;39.37
58018;BME280;43810;50.860;19.226;2023-05-22T10:24:24;98754.91;;;23.86;35.39
58018;BME280;43810;50.860;19.226;2023-05-22T10:26:52;98760.41;;;23.83;39.48
58018;BME280;43810;50.860;19.226;2023-05-22T10:29:23;98750.44;;;23.76;38.00
58018;BME280;43810;50.860;19.226;2023-05-22T10:31:57;98753.09;;;23.80;38.40
58018;BME280;43810;50.860;19.226;2023-05-22T10:40:10;98748.38;;;24.07;40.47
58018;BME280;43810;50.860;19.226;2023-05-22T10:42:37;98747.53;;;24.10;38.02
58018;BME280;43810;50.860;19.226;2023-05-22T10:45:06;98743.84;;;24.43;35.77
58018;BME280;43810;50.860;19.226;2023-05-22T10:47:32;98737.16;;;24.05;36.05
58018;BME280;43810;50.860;19.226;2023-05-22T10:50:11;98746.22;;;24.41;40.22
58018;BME280;43810;50.860;19.226;2023-05-22T10:52:37;98740.44;;;24.39;38.24
58018;BME280;43810;50.860;19.226;2023-05-22T10:55:10;98736.00;;;24.06;39.21
58018;BME280;43810;50.860;19.226;2023-05-22T10:57:37;98735.53;;;23.61;39.05
58018;BME280;43810;50.860;19.226;2023-05-22T11:00:11;98730.81;;;23.65;38.32
58018;BME280;43810;50.860;19.226;2023-05-22T11:02:40;98725.50;;;23.31;39.92
58018;BME280;43810;50.860;19.226;2023-05-22T11:07:48;98716.47;;;23.64;41.24
58018;BME280;43810;50.860;19.226;2023-05-22T11:10:24;98723.44;;;23.65;38.65
58018;BME280;43810;50.860;19.226;2023-05-22T11:13:01;98717.81;;;23.80;38.81
58018;BME280;43810;50.860;19.226;2023-05-22T11:15:30;98716.94;;;23.86;38.69
58018;BME280;43810;50.860;19.226;2023-05-22T11:18:02;98711.41;;;23.93;38.75
58018;BME280;43810;50.860;19.226;2023-05-22T11:20:36;98719.22;;;24.11;38.58
58018;BME280;43810;50.860;19.226;2023-05-22T11:23:05;98711.84;;;23.88;40.88
58018;BME280;43810;50.860;19.226;2023-05-22T11:25:33;98708.56;;;23.77;38.26
58018;BME280;43810;50.860;19.226;2023-05-22T11:28:02;98724.13;;;23.96;39.27
58018;BME280;43810;50.860;19.226;2023-05-22T11:30:28;98708.59;;;23.97;40.02
58018;BME280;43810;50.860;19.226;2023-05-22T11:32:59;98705.06;;;23.77;39.49
58018;BME280;43810;50.860;19.226;2023-05-22T11:35:26;98708.88;;;23.56;41.52
58018;BME280;43810;50.860;19.226;2023-05-22T11:37:54;98704.84;;;23.64;38.07
58018;BME280;43810;50.860;19.226;2023-05-22T11:40:21;98696.50;;;23.55;39.12
58018;BME280;43810;50.860;19.226;2023-05-22T11:42:52;98697.31;;;22.94;38.26
58018;BME280;43810;50.860;19.226;2023-05-22T11:45:18;98700.50;;;22.89;41.91
58018;BME280;43810;50.860;19.226;2023-05-22T11:47:44;98700.09;;;22.91;42.87
58018;BME280;43810;50.860;19.226;2023-05-22T11:50:11;98695.78;;;22.93;41.13
58018;BME280;43810;50.860;19.226;2023-05-22T11:52:41;98696.78;;;22.76;41.83
58018;BME280;43810;50.860;19.226;2023-05-22T11:55:10;98690.91;;;22.51;41.88
58018;BME280;43810;50.860;19.226;2023-05-22T11:57:37;98694.38;;;22.51;41.92
58018;BME280;43810;50.860;19.226;2023-05-22T12:00:04;98691.00;;;22.74;40.63
58018;BME280;43810;50.860;19.226;2023-05-22T12:02:34;98686.50;;;23.25;42.95
58018;BME280;43810;50.860;19.226;2023-05-22T12:05:00;98693.59;;;23.42;43.39
58018;BME280;43810;50.860;19.226;2023-05-22T12:07:26;98683.34;;;23.53;40.31
58018;BME280;43810;50.860;19.226;2023-05-22T12:09:55;98688.81;;;24.20;38.55
58018;BME280;43810;50.860;19.226;2023-05-22T12:12:21;98691.72;;;24.09;39.19
58018;BME280;43810;50.860;19.226;2023-05-22T12:14:47;98690.50;;;23.90;39.78
58018;BME280;43810;50.860;19.226;2023-05-22T12:17:15;98691.56;;;24.39;40.81
58018;BME280;43810;50.860;19.226;2023-05-22T12:19:42;98687.66;;;24.40;36.08
58018;BME280;43810;50.860;19.226;2023-05-22T12:22:10;98682.84;;;24.48;34.44
58018;BME280;43810;50.860;19.226;2023-05-22T12:24:39;98684.03;;;24.47;35.09
58018;BME280;43810;50.860;19.226;2023-05-22T12:27:09;98684.59;;;24.78;37.75
58018;BME280;43810;50.860;19.226;2023-05-22T12:29:39;98684.16;;;25.15;36.85
58018;BME280;43810;50.860;19.226;2023-05-22T12:32:09;98688.13;;;24.95;37.29
58018;BME280;43810;50.860;19.226;2023-05-22T12:34:42;98675.38;;;24.92;36.65
58018;BME280;43810;50.860;19.226;2023-05-22T12:37:22;98672.53;;;25.15;38.71
58018;BME280;43810;50.860;19.226;2023-05-22T12:42:19;98656.94;;;25.35;37.34
58018;BME280;43810;50.860;19.226;2023-05-22T12:44:45;98663.59;;;24.98;37.80
58018;BME280;43810;50.860;19.226;2023-05-22T12:47:11;98659.22;;;25.37;35.24
58018;BME280;43810;50.860;19.226;2023-05-22T12:49:37;98652.41;;;25.61;34.24
58018;BME280;43810;50.860;19.226;2023-05-22T12:52:03;98651.66;;;25.28;35.40
58018;BME280;43810;50.860;19.226;2023-05-22T12:54:28;98653.53;;;25.31;34.20
58018;BME280;43810;50.860;19.226;2023-05-22T12:56:54;98646.25;;;25.44;35.31
58018;BME280;43810;50.860;19.226;2023-05-22T12:59:20;98639.53;;;25.33;35.02
58018;BME280;43810;50.860;19.226;2023-05-22T13:01:46;98642.72;;;25.60;33.89
58018;BME280;43810;50.860;19.226;2023-05-22T13:04:12;98648.41;;;25.98;33.30
58018;BME280;43810;50.860;19.226;2023-05-22T13:06:38;98649.47;;;25.39;32.43
58018;BME280;43810;50.860;19.226;2023-05-22T13:09:04;98636.03;;;24.80;32.95
58018;BME280;43810;50.860;19.226;2023-05-22T13:11:30;98642.34;;;24.57;36.48
58018;BME280;43810;50.860;19.226;2023-05-22T13:13:55;98630.97;;;24.98;33.24
58018;BME280;43810;50.860;19.226;2023-05-22T13:16:21;98635.16;;;25.35;33.16